sensor_id;sensor_type;location;lat;lon;timestamp;pressure;altitude;pressure_sealevel;temperature
49593;BMP280;35499;51.482;4.264;2023-07-08T00:00:24;101511.97;;;21.67
49593;BMP280;35499;51.482;4.264;2023-07-08T00:02:50;101509.56;;;21.62
49593;BMP280;35499;51.482;4.264;2023-07-08T00:05:16;101511.47;;;21.59
49593;BMP280;35499;51.482;4.264;2023-07-08T00:07:42;101512.50;;;21.56
49593;BMP280;35499;51.482;4.264;2023-07-08T00:10:18;101507.38;;;21.53
49593;BMP280;35499;51.482;4.264;2023-07-08T00:12:44;101505.91;;;21.48
49593;BMP280;35499;51.482;4.264;2023-07-08T00:15:10;101496.47;;;21.46
49593;BMP280;35499;51.482;4.264;2023-07-08T00:17:36;101494.81;;;21.43
49593;BMP280;35499;51.482;4.264;2023-07-08T00:20:04;101494.19;;;21.38
49593;BMP280;35499;51.482;4.264;2023-07-08T00:22:33;101495.19;;;21.36
49593;BMP280;35499;51.482;4.264;2023-07-08T00:24:59;101501.41;;;21.33
49593;BMP280;35499;51.482;4.264;2023-07-08T00:27:24;101495.44;;;21.32
49593;BMP280;35499;51.482;4.264;2023-07-08T00:29:49;101491.09;;;21.31
49593;BMP280;35499;51.482;4.264;2023-07-08T00:32:15;101488.56;;;21.29
49593;BMP280;35499;51.482;4.264;2023-07-08T00:34:41;101492.94;;;21.29
49593;BMP280;35499;51.482;4.264;2023-07-08T00:37:09;101489.56;;;21.27
49593;BMP280;35499;51.482;4.264;2023-07-08T00:39:35;101499.28;;;21.23
49593;BMP280;35499;51.482;4.264;2023-07-08T00:42:01;101499.38;;;21.22
49593;BMP280;35499;51.482;4.264;2023-07-08T00:44:27;101500.28;;;21.21
49593;BMP280;35499;51.482;4.264;2023-07-08T00:47:02;101494.28;;;21.19
49593;BMP280;35499;51.482;4.264;2023-07-08T00:52:19;101482.41;;;21.12
49593;BMP280;35499;51.482;4.264;2023-07-08T00:54:45;101478.22;;;21.08
49593;BMP280;35499;51.482;4.264;2023-07-08T00:57:10;101487.91;;;21.06
49593;BMP280;35499;51.482;4.264;2023-07-08T00:59:38;101485.41;;;21.03
49593;BMP280;35499;51.482;4.264;2023-07-08T01:02:06;101483.88;;;20.99
49593;BMP280;35499;51.482;4.264;2023-07-08T01:04:49;101483.06;;;20.97
49593;BMP280;35499;51.482;4.264;2023-07-08T01:07:15;101478.91;;;20.94
49593;BMP280;35499;51.482;4.264;2023-07-08T01:09:46;101488.66;;;20.90
49593;BMP280;35499;51.482;4.264;2023-07-08T01:12:14;101482.75;;;20.87
49593;BMP280;35499;51.482;4.264;2023-07-08T01:14:40;101488.25;;;20.81
49593;BMP280;35499;51.482;4.264;2023-07-08T01:17:07;101479.75;;;20.76
49593;BMP280;35499;51.482;4.264;2023-07-08T01:19:32;101478.19;;;20.72
49593;BMP280;35499;51.482;4.264;2023-07-08T01:21:58;101480.94;;;20.69
49593;BMP280;35499;51.482;4.264;2023-07-08T01:24:26;101488.94;;;20.66
49593;BMP280;35499;51.482;4.264;2023-07-08T01:26:52;101478.59;;;20.63
49593;BMP280;35499;51.482;4.264;2023-07-08T01:29:18;101481.41;;;20.59
49593;BMP280;35499;51.482;4.264;2023-07-08T01:31:43;101481.63;;;20.55
49593;BMP280;35499;51.482;4.264;2023-07-08T01:34:14;101474.00;;;20.50
49593;BMP280;35499;51.482;4.264;2023-07-08T01:36:40;101475.06;;;20.46
49593;BMP280;35499;51.482;4.264;2023-07-08T01:39:10;101482.16;;;20.43
49593;BMP280;35499;51.482;4.264;2023-07-08T01:41:35;101478.84;;;20.40
49593;BMP280;35499;51.482;4.264;2023-07-08T01:44:00;101478.13;;;20.36
49593;BMP280;35499;51.482;4.264;2023-07-08T01:46:25;101481.75;;;20.32
49593;BMP280;35499;51.482;4.264;2023-07-08T01:48:52;101482.78;;;20.28
49593;BMP280;35499;51.482;4.264;2023-07-08T01:51:18;101482.13;;;20.24
49593;BMP280;35499;51.482;4.264;2023-07-08T01:53:44;101477.06;;;20.21
49593;BMP280;35499;51.482;4.264;2023-07-08T01:56:11;101478.09;;;20.17
49593;BMP280;35499;51.482;4.264;2023-07-08T01:58:37;101480.81;;;20.14
49593;BMP280;35499;51.482;4.264;2023-07-08T02:01:02;101474.91;;;20.10
49593;BMP280;35499;51.482;4.264;2023-07-08T02:03:28;101470.63;;;20.08
49593;BMP280;35499;51.482;4.264;2023-07-08T02:05:53;101468.22;;;20.04
49593;BMP280;35499;51.482;4.264;2023-07-08T02:08:19;101463.09;;;20.02
49593;BMP280;35499;51.482;4.264;2023-07-08T02:10:48;101459.75;;;19.99
49593;BMP280;35499;51.482;4.264;2023-07-08T02:13:13;101452.91;;;19.96
49593;BMP280;35499;51.482;4.264;2023-07-08T02:15:39;101450.50;;;19.92
49593;BMP280;35499;51.482;4.264;2023-07-08T02:18:04;101460.19;;;19.89
49593;BMP280;35499;51.482;4.264;2023-07-08T02:20:30;101449.00;;;19.87
49593;BMP280;35499;51.482;4.264;2023-07-08T02:22:56;101451.72;;;19.84
49593;BMP280;35499;51.482;4.264;2023-07-08T02:25:21;101447.50;;;19.81
49593;BMP280;35499;51.482;4.264;2023-07-08T02:27:46;101444.16;;;19.78
49593;BMP280;35499;51.482;4.264;2023-07-08T02:30:11;101442.53;;;19.75
49593;BMP280;35499;51.482;4.264;2023-07-08T02:32:36;101441.81;;;19.72
49593;BMP280;35499;51.482;4.264;2023-07-08T02:35:04;101448.00;;;19.70
49593;BMP280;35499;51.482;4.264;2023-07-08T02:37:29;101450.75;;;19.67
49593;BMP280;35499;51.482;4.264;2023-07-08T02:39:55;101448.31;;;19.62
49593;BMP280;35499;51.482;4.264;2023-07-08T02:42:20;101460.56;;;19.60
49593;BMP280;35499;51.482;4.264;2023-07-08T02:44:45;101459.75;;;19.58
49593;BMP280;35499;51.482;4.264;2023-07-08T02:47:10;101461.59;;;19.56
49593;BMP280;35499;51.482;4.264;2023-07-08T02:49:35;101462.50;;;19.55
49593;BMP280;35499;51.482;4.264;2023-07-08T02:52:01;101459.09;;;19.53
49593;BMP280;35499;51.482;4.264;2023-07-08T02:54:26;101463.56;;;19.50
49593;BMP280;35499;51.482;4.264;2023-07-08T02:56:51;101463.75;;;19.46
49593;BMP280;35499;51.482;4.264;2023-07-08T02:59:16;101475.13;;;19.43
49593;BMP280;35499;51.482;4.264;2023-07-08T03:01:41;101471.84;;;19.38
49593;BMP280;35499;51.482;4.264;2023-07-08T03:04:07;101472.88;;;19.35
49593;BMP280;35499;51.482;4.264;2023-07-08T03:06:33;101473.97;;;19.29
49593;BMP280;35499;51.482;4.264;2023-07-08T03:08:59;101469.00;;;19.23
49593;BMP280;35499;51.482;4.264;2023-07-08T03:11:24;101475.28;;;19.18
49593;BMP280;35499;51.482;4.264;2023-07-08T03:13:49;101462.44;;;19.14
49593;BMP280;35499;51.482;4.264;2023-07-08T03:16:14;101466.06;;;19.10
49593;BMP280;35499;51.482;4.264;2023-07-08T03:18:40;101473.22;;;19.05
49593;BMP280;35499;51.482;4.264;2023-07-08T03:21:11;101482.91;;;19.01
49593;BMP280;35499;51.482;4.264;2023-07-08T03:23:37;101477.03;;;18.97
49593;BMP280;35499;51.482;4.264;2023-07-08T03:26:02;101478.88;;;18.93
49593;BMP280;35499;51.482;4.264;2023-07-08T03:28:28;101472.09;;;18.89
49593;BMP280;35499;51.482;4.264;2023-07-08T03:30:53;101477.44;;;18.86
49593;BMP280;35499;51.482;4.264;2023-07-08T03:33:18;101481.88;;;18.83
49593;BMP280;35499;51.482;4.264;2023-07-08T03:35:43;101483.72;;;18.81
49593;BMP280;35499;51.482;4.264;2023-07-08T03:38:09;101487.25;;;18.79
49593;BMP280;35499;51.482;4.264;2023-07-08T03:40:35;101486.47;;;18.77
49593;BMP280;35499;51.482;4.264;2023-07-08T03:43:00;101483.97;;;18.74
49593;BMP280;35499;51.482;4.264;2023-07-08T03:45:25;101482.28;;;18.73
49593;BMP280;35499;51.482;4.264;2023-07-08T03:47:51;101486.69;;;18.71
49593;BMP280;35499;51.482;4.264;2023-07-08T03:50:20;101477.28;;;18.67
49593;BMP280;35499;51.482;4.264;2023-07-08T03:52:46;101479.94;;;18.65
49593;BMP280;35499;51.482;4.264;2023-07-08T03:55:12;101484.31;;;18.63
49593;BMP280;35499;51.482;4.264;2023-07-08T03:57:37;101488.69;;;18.63
49593;BMP280;35499;51.482;4.264;2023-07-08T04:00:02;101480.09;;;18.61
49593;BMP280;35499;51.482;4.264;2023-07-08T04:02:28;101481.03;;;18.59
49593;BMP280;35499;51.482;4.264;2023-07-08T04:04:53;101491.53;;;18.57
49593;BMP280;35499;51.482;4.264;2023-07-08T04:07:19;101490.72;;;18.55
49593;BMP280;35499;51.482;4.264;2023-07-08T04:09:44;101492.47;;;18.55
49593;BMP280;35499;51.482;4.264;2023-07-08T04:12:14;101492.41;;;18.56
49593;BMP280;35499;51.482;4.264;2023-07-08T04:14:39;101491.53;;;18.57
49593;BMP280;35499;51.482;4.264;2023-07-08T04:17:07;101499.25;;;18.59
49593;BMP280;35499;51.482;4.264;2023-07-08T04:19:32;101497.47;;;18.61
49593;BMP280;35499;51.482;4.264;2023-07-08T04:21:58;101494.81;;;18.62
49593;BMP280;35499;51.482;4.264;2023-07-08T04:24:23;101497.28;;;18.65
49593;BMP280;35499;51.482;4.264;2023-07-08T04:26:48;101490.28;;;18.67
49593;BMP280;35499;51.482;4.264;2023-07-08T04:29:14;101488.41;;;18.72
49593;BMP280;35499;51.482;4.264;2023-07-08T04:31:40;101484.81;;;18.74
49593;BMP280;35499;51.482;4.264;2023-07-08T04:34:07;101491.59;;;18.78
49593;BMP280;35499;51.482;4.264;2023-07-08T04:36:32;101485.47;;;18.81
49593;BMP280;35499;51.482;4.264;2023-07-08T04:38:58;101486.13;;;18.85
49593;BMP280;35499;51.482;4.264;2023-07-08T04:41:24;101487.72;;;18.89
49593;BMP280;35499;51.482;4.264;2023-07-08T04:43:50;101493.59;;;18.94
49593;BMP280;35499;51.482;4.264;2023-07-08T04:46:23;101492.56;;;18.98
49593;BMP280;35499;51.482;4.264;2023-07-08T04:48:52;101499.25;;;19.05
49593;BMP280;35499;51.482;4.264;2023-07-08T04:51:17;101488.63;;;19.11
49593;BMP280;35499;51.482;4.264;2023-07-08T04:53:44;101475.28;;;19.18
49593;BMP280;35499;51.482;4.264;2023-07-08T04:56:09;101470.59;;;19.27
49593;BMP280;35499;51.482;4.264;2023-07-08T04:58:34;101467.56;;;19.37
49593;BMP280;35499;51.482;4.264;2023-07-08T05:00:59;101477.53;;;19.48
49593;BMP280;35499;51.482;4.264;2023-07-08T05:03:24;101473.63;;;19.59
49593;BMP280;35499;51.482;4.264;2023-07-08T05:05:50;101477.50;;;19.70
49593;BMP280;35499;51.482;4.264;2023-07-08T05:08:15;101470.09;;;19.81
49593;BMP280;35499;51.482;4.264;2023-07-08T05:10:40;101462.56;;;19.94
49593;BMP280;35499;51.482;4.264;2023-07-08T05:13:06;101451.47;;;20.09
49593;BMP280;35499;51.482;4.264;2023-07-08T05:15:31;101460.28;;;20.26
49593;BMP280;35499;51.482;4.264;2023-07-08T05:17:56;101459.50;;;20.43
49593;BMP280;35499;51.482;4.264;2023-07-08T05:20:21;101451.63;;;20.63
49593;BMP280;35499;51.482;4.264;2023-07-08T05:22:47;101456.91;;;20.81
49593;BMP280;35499;51.482;4.264;2023-07-08T05:25:13;101454.97;;;21.02
49593;BMP280;35499;51.482;4.264;2023-07-08T05:27:38;101456.72;;;21.21
49593;BMP280;35499;51.482;4.264;2023-07-08T05:30:04;101452.25;;;21.41
49593;BMP280;35499;51.482;4.264;2023-07-08T05:32:30;101439.06;;;21.61
49593;BMP280;35499;51.482;4.264;2023-07-08T05:34:55;101441.53;;;21.80
49593;BMP280;35499;51.482;4.264;2023-07-08T05:37:21;101450.03;;;22.02
49593;BMP280;35499;51.482;4.264;2023-07-08T05:39:50;101449.88;;;22.21
49593;BMP280;35499;51.482;4.264;2023-07-08T05:42:15;101446.97;;;22.42
49593;BMP280;35499;51.482;4.264;2023-07-08T05:44:40;101445.88;;;22.62
49593;BMP280;35499;51.482;4.264;2023-07-08T05:47:05;101439.69;;;22.80
49593;BMP280;35499;51.482;4.264;2023-07-08T05:49:31;101444.84;;;22.96
49593;BMP280;35499;51.482;4.264;2023-07-08T05:51:56;101442.16;;;23.13
49593;BMP280;35499;51.482;4.264;2023-07-08T05:54:21;101442.03;;;23.31
49593;BMP280;35499;51.482;4.264;2023-07-08T05:56:46;101439.88;;;23.52
49593;BMP280;35499;51.482;4.264;2023-07-08T05:59:12;101442.97;;;23.74
49593;BMP280;35499;51.482;4.264;2023-07-08T06:01:37;101445.97;;;23.97
49593;BMP280;35499;51.482;4.264;2023-07-08T06:04:02;101446.91;;;24.24
49593;BMP280;35499;51.482;4.264;2023-07-08T06:06:27;101446.25;;;24.48
49593;BMP280;35499;51.482;4.264;2023-07-08T06:08:53;101452.97;;;24.67
49593;BMP280;35499;51.482;4.264;2023-07-08T06:11:18;101452.69;;;24.85
49593;BMP280;35499;51.482;4.264;2023-07-08T06:13:43;101452.00;;;25.09
49593;BMP280;35499;51.482;4.264;2023-07-08T06:16:09;101453.19;;;25.31
49593;BMP280;35499;51.482;4.264;2023-07-08T06:18:34;101437.53;;;25.55
49593;BMP280;35499;51.482;4.264;2023-07-08T06:20:59;101428.91;;;25.91
49593;BMP280;35499;51.482;4.264;2023-07-08T06:23:24;101425.69;;;26.12
49593;BMP280;35499;51.482;4.264;2023-07-08T06:25:50;101431.91;;;26.36
49593;BMP280;35499;51.482;4.264;2023-07-08T06:28:15;101433.88;;;26.58
49593;BMP280;35499;51.482;4.264;2023-07-08T06:30:40;101435.44;;;26.85
49593;BMP280;35499;51.482;4.264;2023-07-08T06:33:06;101428.63;;;27.05
49593;BMP280;35499;51.482;4.264;2023-07-08T06:35:31;101429.19;;;27.33
49593;BMP280;35499;51.482;4.264;2023-07-08T06:37:56;101421.91;;;27.59
49593;BMP280;35499;51.482;4.264;2023-07-08T06:40:21;101427.28;;;27.81
49593;BMP280;35499;51.482;4.264;2023-07-08T06:42:46;101427.47;;;28.23
49593;BMP280;35499;51.482;4.264;2023-07-08T06:45:12;101415.38;;;28.53
49593;BMP280;35499;51.482;4.264;2023-07-08T06:47:37;101416.25;;;28.86
49593;BMP280;35499;51.482;4.264;2023-07-08T06:50:02;101405.16;;;29.24
49593;BMP280;35499;51.482;4.264;2023-07-08T06:52:27;101407.00;;;29.54
49593;BMP280;35499;51.482;4.264;2023-07-08T06:54:58;101409.44;;;29.77
49593;BMP280;35499;51.482;4.264;2023-07-08T06:57:24;101410.50;;;30.25
49593;BMP280;35499;51.482;4.264;2023-07-08T06:59:49;101414.66;;;30.58
49593;BMP280;35499;51.482;4.264;2023-07-08T07:02:14;101416.47;;;30.87
49593;BMP280;35499;51.482;4.264;2023-07-08T07:04:39;101412.03;;;30.87
49593;BMP280;35499;51.482;4.264;2023-07-08T07:07:04;101407.59;;;30.97
49593;BMP280;35499;51.482;4.264;2023-07-08T07:09:30;101420.56;;;31.00
49593;BMP280;35499;51.482;4.264;2023-07-08T07:11:55;101411.69;;;31.19
49593;BMP280;35499;51.482;4.264;2023-07-08T07:14:20;101419.25;;;31.24
49593;BMP280;35499;51.482;4.264;2023-07-08T07:16:45;101412.75;;;31.46
49593;BMP280;35499;51.482;4.264;2023-07-08T07:19:11;101405.63;;;31.74
49593;BMP280;35499;51.482;4.264;2023-07-08T07:21:36;101403.00;;;32.02
49593;BMP280;35499;51.482;4.264;2023-07-08T07:24:01;101405.47;;;32.40
49593;BMP280;35499;51.482;4.264;2023-07-08T07:26:26;101404.97;;;32.63
49593;BMP280;35499;51.482;4.264;2023-07-08T07:28:51;101401.22;;;32.56
49593;BMP280;35499;51.482;4.264;2023-07-08T07:31:16;101406.78;;;32.72
49593;BMP280;35499;51.482;4.264;2023-07-08T07:33:42;101404.16;;;32.53
49593;BMP280;35499;51.482;4.264;2023-07-08T07:36:07;101406.94;;;32.61
49593;BMP280;35499;51.482;4.264;2023-07-08T07:38:33;101395.47;;;32.96
49593;BMP280;35499;51.482;4.264;2023-07-08T07:40:58;101391.91;;;33.31
49593;BMP280;35499;51.482;4.264;2023-07-08T07:43:25;101393.81;;;33.39
49593;BMP280;35499;51.482;4.264;2023-07-08T07:45:51;101396.13;;;33.51
49593;BMP280;35499;51.482;4.264;2023-07-08T07:48:17;101391.59;;;34.02
49593;BMP280;35499;51.482;4.264;2023-07-08T07:50:48;101383.72;;;34.60
49593;BMP280;35499;51.482;4.264;2023-07-08T07:53:14;101379.31;;;35.16
49593;BMP280;35499;51.482;4.264;2023-07-08T07:55:39;101383.44;;;35.59
49593;BMP280;35499;51.482;4.264;2023-07-08T07:58:05;101381.47;;;35.92
49593;BMP280;35499;51.482;4.264;2023-07-08T08:00:30;101383.34;;;35.92
49593;BMP280;35499;51.482;4.264;2023-07-08T08:02:55;101390.66;;;35.74
49593;BMP280;35499;51.482;4.264;2023-07-08T08:05:20;101393.50;;;35.88
49593;BMP280;35499;51.482;4.264;2023-07-08T08:07:46;101390.19;;;36.25
49593;BMP280;35499;51.482;4.264;2023-07-08T08:10:12;101389.25;;;36.71
49593;BMP280;35499;51.482;4.264;2023-07-08T08:12:38;101392.13;;;37.07
49593;BMP280;35499;51.482;4.264;2023-07-08T08:15:03;101398.88;;;37.33
49593;BMP280;35499;51.482;4.264;2023-07-08T08:17:28;101402.47;;;37.56
49593;BMP280;35499;51.482;4.264;2023-07-08T08:19:53;101395.50;;;37.91
49593;BMP280;35499;51.482;4.264;2023-07-08T08:22:19;101399.09;;;37.83
49593;BMP280;35499;51.482;4.264;2023-07-08T08:24:46;101405.66;;;37.81
49593;BMP280;35499;51.482;4.264;2023-07-08T08:27:11;101404.19;;;37.93
49593;BMP280;35499;51.482;4.264;2023-07-08T08:29:36;101398.03;;;38.28
49593;BMP280;35499;51.482;4.264;2023-07-08T08:32:01;101401.19;;;38.32
49593;BMP280;35499;51.482;4.264;2023-07-08T08:34:27;101400.13;;;38.18
49593;BMP280;35499;51.482;4.264;2023-07-08T08:36:53;101402.84;;;38.33
49593;BMP280;35499;51.482;4.264;2023-07-08T08:39:20;101400.31;;;38.81
49593;BMP280;35499;51.482;4.264;2023-07-08T08:41:45;101395.13;;;39.42
49593;BMP280;35499;51.482;4.264;2023-07-08T08:44:13;101395.97;;;39.98
49593;BMP280;35499;51.482;4.264;2023-07-08T08:46:49;101394.19;;;40.05
49593;BMP280;35499;51.482;4.264;2023-07-08T08:49:30;101387.59;;;39.87
49593;BMP280;35499;51.482;4.264;2023-07-08T08:51:58;101388.66;;;40.13
49593;BMP280;35499;51.482;4.264;2023-07-08T08:54:23;101380.00;;;40.44
49593;BMP280;35499;51.482;4.264;2023-07-08T09:04:34;101379.22;;;42.63
49593;BMP280;35499;51.482;4.264;2023-07-08T09:07:06;101379.44;;;42.36
49593;BMP280;35499;51.482;4.264;2023-07-08T09:09:45;101385.88;;;42.48
49593;BMP280;35499;51.482;4.264;2023-07-08T09:12:18;101383.16;;;42.48
49593;BMP280;35499;51.482;4.264;2023-07-08T09:14:45;101390.44;;;42.47
49593;BMP280;35499;51.482;4.264;2023-07-08T09:19:41;101394.88;;;43.10
49593;BMP280;35499;51.482;4.264;2023-07-08T09:22:16;101396.44;;;43.36
49593;BMP280;35499;51.482;4.264;2023-07-08T09:27:10;101394.19;;;43.33
49593;BMP280;35499;51.482;4.264;2023-07-08T09:29:35;101393.28;;;42.96
49593;BMP280;35499;51.482;4.264;2023-07-08T09:32:11;101395.13;;;43.02
49593;BMP280;35499;51.482;4.264;2023-07-08T09:34:41;101388.63;;;43.09
49593;BMP280;35499;51.482;4.264;2023-07-08T09:39:55;101391.59;;;43.02
49593;BMP280;35499;51.482;4.264;2023-07-08T09:42:22;101398.13;;;43.31
49593;BMP280;35499;51.482;4.264;2023-07-08T09:44:49;101387.44;;;43.48
49593;BMP280;35499;51.482;4.264;2023-07-08T09:47:20;101388.97;;;43.25
49593;BMP280;35499;51.482;4.264;2023-07-08T09:49:46;101384.75;;;42.93
49593;BMP280;35499;51.482;4.264;2023-07-08T09:52:12;101389.94;;;42.88
49593;BMP280;35499;51.482;4.264;2023-07-08T09:54:40;101389.06;;;43.13
49593;BMP280;35499;51.482;4.264;2023-07-08T09:57:09;101396.88;;;43.27
49593;BMP280;35499;51.482;4.264;2023-07-08T09:59:42;101403.06;;;43.46
49593;BMP280;35499;51.482;4.264;2023-07-08T10:02:30;101390.56;;;43.45
49593;BMP280;35499;51.482;4.264;2023-07-08T10:04:57;101397.97;;;43.69
49593;BMP280;35499;51.482;4.264;2023-07-08T10:07:22;101405.31;;;43.49
49593;BMP280;35499;51.482;4.264;2023-07-08T10:09:48;101398.97;;;43.31
49593;BMP280;35499;51.482;4.264;2023-07-08T10:12:15;101405.09;;;43.51
49593;BMP280;35499;51.482;4.264;2023-07-08T10:14:43;101399.03;;;43.55
49593;BMP280;35499;51.482;4.264;2023-07-08T10:17:12;101403.03;;;43.53
49593;BMP280;35499;51.482;4.264;2023-07-08T10:19:38;101399.94;;;43.79
49593;BMP280;35499;51.482;4.264;2023-07-08T10:29:54;101401.53;;;43.93
49593;BMP280;35499;51.482;4.264;2023-07-08T10:32:44;101408.97;;;44.04
49593;BMP280;35499;51.482;4.264;2023-07-08T10:35:18;101403.25;;;44.35
49593;BMP280;35499;51.482;4.264;2023-07-08T10:37:56;101408.25;;;44.80
49593;BMP280;35499;51.482;4.264;2023-07-08T10:45:48;101397.84;;;45.29
49593;BMP280;35499;51.482;4.264;2023-07-08T10:48:41;101402.38;;;45.00
49593;BMP280;35499;51.482;4.264;2023-07-08T10:53:46;101396.09;;;45.81
49593;BMP280;35499;51.482;4.264;2023-07-08T10:56:19;101392.41;;;46.16
49593;BMP280;35499;51.482;4.264;2023-07-08T10:59:02;101388.38;;;46.40
49593;BMP280;35499;51.482;4.264;2023-07-08T11:04:21;101392.47;;;47.10
49593;BMP280;35499;51.482;4.264;2023-07-08T11:07:09;101392.06;;;47.29
49593;BMP280;35499;51.482;4.264;2023-07-08T11:12:11;101384.28;;;47.76
49593;BMP280;35499;51.482;4.264;2023-07-08T11:14:56;101392.34;;;47.55
49593;BMP280;35499;51.482;4.264;2023-07-08T11:17:27;101390.97;;;47.41
49593;BMP280;35499;51.482;4.264;2023-07-08T11:22:20;101388.00;;;47.43
49593;BMP280;35499;51.482;4.264;2023-07-08T11:24:47;101381.94;;;47.52
49593;BMP280;35499;51.482;4.264;2023-07-08T11:27:21;101379.72;;;47.65
49593;BMP280;35499;51.482;4.264;2023-07-08T11:32:21;101371.13;;;47.73
49593;BMP280;35499;51.482;4.264;2023-07-08T11:34:49;101374.19;;;47.60
49593;BMP280;35499;51.482;4.264;2023-07-08T11:37:15;101382.34;;;47.60
49593;BMP280;35499;51.482;4.264;2023-07-08T11:39:44;101374.69;;;47.73
49593;BMP280;35499;51.482;4.264;2023-07-08T11:42:23;101373.16;;;47.77
49593;BMP280;35499;51.482;4.264;2023-07-08T11:44:51;101374.59;;;47.52
49593;BMP280;35499;51.482;4.264;2023-07-08T11:47:19;101374.06;;;47.28
49593;BMP280;35499;51.482;4.264;2023-07-08T11:49:46;101366.69;;;47.01
49593;BMP280;35499;51.482;4.264;2023-07-08T11:52:13;101373.44;;;46.99
49593;BMP280;35499;51.482;4.264;2023-07-08T11:54:39;101366.59;;;46.96
49593;BMP280;35499;51.482;4.264;2023-07-08T11:57:14;101367.88;;;46.94
49593;BMP280;35499;51.482;4.264;2023-07-08T11:59:41;101361.59;;;47.05
49593;BMP280;35499;51.482;4.264;2023-07-08T12:02:17;101361.13;;;47.08
49593;BMP280;35499;51.482;4.264;2023-07-08T12:07:17;101359.78;;;47.21
49593;BMP280;35499;51.482;4.264;2023-07-08T12:09:58;101350.69;;;47.05
49593;BMP280;35499;51.482;4.264;2023-07-08T12:12:25;101348.41;;;46.86
49593;BMP280;35499;51.482;4.264;2023-07-08T12:14:53;101352.19;;;46.85
49593;BMP280;35499;51.482;4.264;2023-07-08T12:17:23;101346.59;;;46.80
49593;BMP280;35499;51.482;4.264;2023-07-08T12:19:48;101346.97;;;46.83
49593;BMP280;35499;51.482;4.264;2023-07-08T12:22:14;101341.97;;;46.80
49593;BMP280;35499;51.482;4.264;2023-07-08T12:24:40;101344.28;;;46.72
49593;BMP280;35499;51.482;4.264;2023-07-08T12:27:05;101332.56;;;46.71
49593;BMP280;35499;51.482;4.264;2023-07-08T12:29:31;101333.16;;;46.29
49593;BMP280;35499;51.482;4.264;2023-07-08T12:31:57;101330.78;;;45.87
49593;BMP280;35499;51.482;4.264;2023-07-08T12:34:22;101329.72;;;45.48
49593;BMP280;35499;51.482;4.264;2023-07-08T12:36:50;101330.31;;;45.22
49593;BMP280;35499;51.482;4.264;2023-07-08T12:39:15;101325.41;;;44.95
49593;BMP280;35499;51.482;4.264;2023-07-08T12:41:41;101320.88;;;44.78
49593;BMP280;35499;51.482;4.264;2023-07-08T12:44:15;101325.06;;;44.56
49593;BMP280;35499;51.482;4.264;2023-07-08T12:46:40;101324.22;;;44.38
49593;BMP280;35499;51.482;4.264;2023-07-08T12:49:05;101325.13;;;44.09
49593;BMP280;35499;51.482;4.264;2023-07-08T12:51:30;101330.75;;;43.83
49593;BMP280;35499;51.482;4.264;2023-07-08T12:53:56;101332.97;;;43.69
49593;BMP280;35499;51.482;4.264;2023-07-08T12:56:22;101331.94;;;43.63
49593;BMP280;35499;51.482;4.264;2023-07-08T12:58:55;101330.94;;;43.58
49593;BMP280;35499;51.482;4.264;2023-07-08T13:01:22;101333.28;;;43.79
49593;BMP280;35499;51.482;4.264;2023-07-08T13:03:48;101338.22;;;44.12
49593;BMP280;35499;51.482;4.264;2023-07-08T13:06:16;101339.41;;;44.39
49593;BMP280;35499;51.482;4.264;2023-07-08T13:08:42;101345.69;;;44.40
49593;BMP280;35499;51.482;4.264;2023-07-08T13:11:07;101344.28;;;44.31
49593;BMP280;35499;51.482;4.264;2023-07-08T13:13:37;101349.38;;;43.97
49593;BMP280;35499;51.482;4.264;2023-07-08T13:16:03;101349.97;;;43.76
49593;BMP280;35499;51.482;4.264;2023-07-08T13:20:56;101343.34;;;42.99
49593;BMP280;35499;51.482;4.264;2023-07-08T13:23:23;101349.66;;;42.55
49593;BMP280;35499;51.482;4.264;2023-07-08T13:25:51;101353.88;;;42.00
49593;BMP280;35499;51.482;4.264;2023-07-08T13:28:18;101341.91;;;41.38
49593;BMP280;35499;51.482;4.264;2023-07-08T13:30:54;101337.81;;;40.90
49593;BMP280;35499;51.482;4.264;2023-07-08T13:33:19;101342.44;;;40.36
49593;BMP280;35499;51.482;4.264;2023-07-08T13:35:45;101344.00;;;39.97
49593;BMP280;35499;51.482;4.264;2023-07-08T13:38:14;101352.38;;;39.68
49593;BMP280;35499;51.482;4.264;2023-07-08T13:40:42;101349.41;;;39.42
49593;BMP280;35499;51.482;4.264;2023-07-08T13:43:08;101355.25;;;39.11
49593;BMP280;35499;51.482;4.264;2023-07-08T13:45:33;101362.16;;;38.86
49593;BMP280;35499;51.482;4.264;2023-07-08T13:48:18;101369.28;;;38.65
49593;BMP280;35499;51.482;4.264;2023-07-08T13:50:46;101362.56;;;38.47
49593;BMP280;35499;51.482;4.264;2023-07-08T13:53:20;101363.13;;;38.42
49593;BMP280;35499;51.482;4.264;2023-07-08T13:55:46;101357.88;;;38.49
49593;BMP280;35499;51.482;4.264;2023-07-08T13:58:14;101363.22;;;38.63
49593;BMP280;35499;51.482;4.264;2023-07-08T14:00:40;101360.78;;;38.75
49593;BMP280;35499;51.482;4.264;2023-07-08T14:03:07;101363.63;;;38.88
49593;BMP280;35499;51.482;4.264;2023-07-08T14:05:36;101365.38;;;38.95
49593;BMP280;35499;51.482;4.264;2023-07-08T14:08:01;101365.38;;;38.81
49593;BMP280;35499;51.482;4.264;2023-07-08T14:10:26;101369.81;;;38.60
49593;BMP280;35499;51.482;4.264;2023-07-08T14:12:51;101374.97;;;38.34
49593;BMP280;35499;51.482;4.264;2023-07-08T14:15:17;101374.25;;;38.03
49593;BMP280;35499;51.482;4.264;2023-07-08T14:17:42;101374.44;;;37.80
49593;BMP280;35499;51.482;4.264;2023-07-08T14:20:11;101378.53;;;37.68
49593;BMP280;35499;51.482;4.264;2023-07-08T14:22:39;101375.94;;;37.61
49593;BMP280;35499;51.482;4.264;2023-07-08T14:25:06;101384.69;;;37.55
49593;BMP280;35499;51.482;4.264;2023-07-08T14:27:32;101382.72;;;37.49
49593;BMP280;35499;51.482;4.264;2023-07-08T14:29:57;101383.56;;;37.49
49593;BMP280;35499;51.482;4.264;2023-07-08T14:32:23;101384.38;;;37.50
49593;BMP280;35499;51.482;4.264;2023-07-08T14:34:51;101388.53;;;37.52
49593;BMP280;35499;51.482;4.264;2023-07-08T14:37:17;101386.06;;;37.51
49593;BMP280;35499;51.482;4.264;2023-07-08T14:39:46;101378.72;;;37.45
49593;BMP280;35499;51.482;4.264;2023-07-08T14:42:11;101380.91;;;37.42
49593;BMP280;35499;51.482;4.264;2023-07-08T14:44:37;101375.22;;;37.37